Time;durP1;ratioP1;P1;durP2;ratioP2;P2;SDS_P1;SDS_P2;PMS_P1;PMS_P2;Temp;Humidity;BMP_temperature;BMP_pressure;BME280_temperature;BME280_humidity;BME280_pressure;Samples;Min_cycle;Max_cycle;Signal;HPM_P1;HPM_P2
2021/08/01 00:02:44;;;;;;;;;;;24.60;47.90;;;;;;8297562;28;19917;-44
2021/08/01 00:06:44;;;;;;;;;;;24.60;47.80;;;;;;8297944;28;20391;-44
2021/08/01 00:10:45;;;;;;;;;;;24.60;47.80;;;;;;8297468;28;20363;-44
2021/08/01 00:14:45;;;;;;;;;;;24.60;47.90;;;;;;8297176;28;19917;-44
2021/08/01 00:18:45;;;;;;;;;;;24.60;47.90;;;;;;8297994;28;19913;-44
2021/08/01 00:22:46;;;;;;;;;;;24.50;47.80;;;;;;8301439;28;20016;-44
2021/08/01 00:26:46;;;;;;;;;;;24.50;47.80;;;;;;8303024;28;20374;-44
2021/08/01 00:30:47;;;;;;;;;;;24.50;47.90;;;;;;8303923;28;19948;-44
2021/08/01 00:34:47;;;;;;;;;;;24.50;47.90;;;;;;8304032;28;19941;-44
2021/08/01 00:38:48;;;;;;;;;;;24.50;47.90;;;;;;8303090;28;20285;-45
2021/08/01 00:42:49;;;;;;;;;;;24.50;47.90;;;;;;8303377;28;19925;-44
2021/08/01 00:46:49;;;;;;;;;;;24.50;47.90;;;;;;8302667;28;19925;-44
2021/08/01 00:50:50;;;;;;;;;;;24.50;48.00;;;;;;8312138;28;19921;-44
2021/08/01 00:54:50;;;;;;;;;;;24.50;48.20;;;;;;8315348;28;19931;-44
2021/08/01 00:58:51;;;;;;;;;;;24.20;48.30;;;;;;8303600;28;19932;-45
2021/08/01 01:02:56;;;;;;;;;;;24.10;48.80;;;;;;8321909;28;20047;-44
2021/08/01 01:06:56;;;;;;;;;;;24.10;48.80;;;;;;8327072;28;19926;-45
2021/08/01 01:10:58;;;;;;;;;;;24.10;48.60;;;;;;8300324;28;19952;-45
2021/08/01 01:15:00;;;;;;;;;;;24.20;48.50;;;;;;8301022;28;20341;-45
2021/08/01 01:19:01;;;;;;;;;;;24.30;48.40;;;;;;8301181;28;19951;-44
2021/08/01 01:23:21;;;;;;;;;;;24.30;48.30;;;;;;8301498;28;19918;-45
2021/08/01 01:27:30;;;;;;;;;;;24.30;48.30;;;;;;8301763;28;19926;-45
2021/08/01 01:32:03;;;;;;;;;;;24.30;48.20;;;;;;8302067;28;20024;-45
2021/08/01 01:36:06;;;;;;;;;;;24.30;48.20;;;;;;8287312;28;19999;-46
2021/08/01 01:40:07;;;;;;;;;;;24.30;48.20;;;;;;8301198;28;19918;-45
2021/08/01 01:44:08;;;;;;;;;;;24.30;48.20;;;;;;8300529;28;19921;-45
2021/08/01 01:48:09;;;;;;;;;;;24.30;48.20;;;;;;8301299;28;20152;-46
2021/08/01 01:52:11;;;;;;;;;;;24.30;48.20;;;;;;8301632;28;20001;-45
2021/08/01 01:56:12;;;;;;;;;;;24.30;48.20;;;;;;8300360;28;20279;-44
2021/08/01 02:00:13;;;;;;;;;;;24.30;48.20;;;;;;8300556;28;19918;-44
2021/08/01 02:04:14;;;;;;;;;;;24.30;48.10;;;;;;8300298;28;19969;-45
2021/08/01 02:08:14;;;;;;;;;;;24.30;48.20;;;;;;8300614;28;20333;-45
2021/08/01 02:12:47;;;;;;;;;;;24.30;48.20;;;;;;8300624;28;20363;-45
2021/08/01 02:16:49;;;;;;;;;;;24.30;48.20;;;;;;8279775;28;19925;-44
2021/08/01 02:20:51;;;;;;;;;;;24.30;48.20;;;;;;8299744;28;19921;-44
2021/08/01 02:24:52;;;;;;;;;;;24.20;48.10;;;;;;8300023;28;20290;-45
2021/08/01 02:28:53;;;;;;;;;;;24.20;48.10;;;;;;8300209;28;20445;-44
2021/08/01 02:32:55;;;;;;;;;;;24.20;48.20;;;;;;8299733;28;19928;-45
2021/08/01 02:36:56;;;;;;;;;;;24.20;48.20;;;;;;8299758;28;20348;-47
2021/08/01 02:40:57;;;;;;;;;;;24.20;48.20;;;;;;8299139;28;19914;-45
2021/08/01 02:44:59;;;;;;;;;;;24.20;48.20;;;;;;8299459;28;19953;-45
2021/08/01 02:49:01;;;;;;;;;;;24.20;48.20;;;;;;8299252;28;20007;-44
2021/08/01 02:53:03;;;;;;;;;;;24.20;48.20;;;;;;8298926;28;19920;-45
2021/08/01 02:57:05;;;;;;;;;;;24.20;48.20;;;;;;8299075;28;19932;-45
2021/08/01 03:01:06;;;;;;;;;;;24.10;48.20;;;;;;8299290;28;20370;-44
2021/08/01 03:05:08;;;;;;;;;;;24.10;48.20;;;;;;8299013;28;19918;-46
2021/08/01 03:09:09;;;;;;;;;;;24.10;48.20;;;;;;8297987;28;20012;-44
2021/08/01 03:13:10;;;;;;;;;;;24.10;48.20;;;;;;8297458;28;19921;-45
2021/08/01 03:17:10;;;;;;;;;;;24.10;48.20;;;;;;8296753;28;19984;-44
2021/08/01 03:21:10;;;;;;;;;;;24.10;48.20;;;;;;8297872;28;19913;-45
2021/08/01 03:25:11;;;;;;;;;;;24.10;48.30;;;;;;8296886;28;20004;-45
2021/08/01 03:29:11;;;;;;;;;;;24.10;48.30;;;;;;8296463;28;20318;-44
2021/08/01 03:33:12;;;;;;;;;;;24.10;48.30;;;;;;8296870;28;19945;-44
2021/08/01 03:37:13;;;;;;;;;;;24.10;48.30;;;;;;8296951;28;20016;-44
2021/08/01 03:41:13;;;;;;;;;;;24.10;48.30;;;;;;8297147;28;19917;-44
2021/08/01 03:45:13;;;;;;;;;;;24.10;48.30;;;;;;8320788;28;20298;-44
2021/08/01 03:49:14;;;;;;;;;;;24.00;48.30;;;;;;8329384;28;19921;-44
2021/08/01 03:53:14;;;;;;;;;;;24.00;48.30;;;;;;8328626;28;19997;-46
2021/08/01 03:57:15;;;;;;;;;;;24.00;48.30;;;;;;8328636;28;20392;-44
2021/08/01 04:01:16;;;;;;;;;;;24.00;48.30;;;;;;8328972;28;19925;-47
2021/08/01 04:05:17;;;;;;;;;;;24.00;48.30;;;;;;8328635;28;19940;-44
2021/08/01 04:09:17;;;;;;;;;;;24.00;48.30;;;;;;8269442;28;1725294;-45
2021/08/01 04:13:18;;;;;;;;;;;24.00;48.30;;;;;;8330715;28;20004;-44
2021/08/01 04:17:18;;;;;;;;;;;24.00;48.30;;;;;;8329443;28;20436;-45
2021/08/01 04:21:19;;;;;;;;;;;24.00;48.30;;;;;;8329893;28;19925;-46
2021/08/01 04:25:20;;;;;;;;;;;24.00;48.30;;;;;;8329903;28;19971;-45
2021/08/01 04:29:20;;;;;;;;;;;24.00;48.30;;;;;;8329427;28;19920;-47
2021/08/01 04:33:21;;;;;;;;;;;24.00;48.40;;;;;;8330567;28;20333;-44
2021/08/01 04:37:21;;;;;;;;;;;24.00;48.40;;;;;;8329534;28;19960;-45
2021/08/01 04:41:21;;;;;;;;;;;24.00;48.40;;;;;;8329267;28;20394;-45
2021/08/01 04:45:22;;;;;;;;;;;23.90;48.40;;;;;;8329563;28;19917;-45
2021/08/01 04:49:23;;;;;;;;;;;23.90;48.40;;;;;;8330273;28;19913;-45
2021/08/01 04:53:23;;;;;;;;;;;24.00;48.60;;;;;;8329012;28;19917;-45
2021/08/01 04:57:23;;;;;;;;;;;23.90;48.50;;;;;;8329653;28;19921;-45
2021/08/01 05:01:24;;;;;;;;;;;23.90;48.50;;;;;;8329583;28;19928;-45
2021/08/01 05:05:24;;;;;;;;;;;23.90;48.50;;;;;;8329458;28;19920;-45
2021/08/01 05:09:25;;;;;;;;;;;23.90;48.50;;;;;;8333918;28;19921;-46
2021/08/01 05:13:25;;;;;;;;;;;23.90;48.50;;;;;;8335366;28;19917;-50
2021/08/01 05:17:26;;;;;;;;;;;23.90;48.50;;;;;;8334560;28;20411;-46
2021/08/01 05:21:26;;;;;;;;;;;23.90;48.60;;;;;;8334640;28;19933;-45
2021/08/01 05:25:27;;;;;;;;;;;23.80;48.50;;;;;;8335435;28;19917;-45
2021/08/01 05:29:27;;;;;;;;;;;23.90;48.60;;;;;;8334311;28;19921;-45
2021/08/01 05:33:28;;;;;;;;;;;23.80;48.60;;;;;;8334767;28;19997;-45
2021/08/01 05:37:28;;;;;;;;;;;23.80;48.60;;;;;;8334400;28;19928;-48
2021/08/01 05:41:28;;;;;;;;;;;23.80;48.60;;;;;;8334432;28;19925;-44
2021/08/01 05:45:29;;;;;;;;;;;23.80;48.60;;;;;;8334180;28;19929;-46
2021/08/01 05:49:30;;;;;;;;;;;23.80;48.60;;;;;;8333954;28;19924;-45
2021/08/01 05:53:31;;;;;;;;;;;23.80;48.60;;;;;;8333383;28;19917;-46
2021/08/01 05:57:31;;;;;;;;;;;23.80;48.60;;;;;;8334268;28;19952;-46
2021/08/01 06:01:32;;;;;;;;;;;23.80;48.70;;;;;;8333666;28;19917;-46
2021/08/01 06:05:32;;;;;;;;;;;23.80;48.60;;;;;;8332955;28;19967;-46
2021/08/01 06:09:32;;;;;;;;;;;23.80;48.70;;;;;;8333538;28;19956;-45
2021/08/01 06:13:33;;;;;;;;;;;23.80;48.60;;;;;;8333460;28;19925;-45
2021/08/01 06:17:34;;;;;;;;;;;23.80;48.70;;;;;;8333197;28;20003;-45
2021/08/01 06:21:36;;;;;;;;;;;23.80;48.70;;;;;;8332578;28;19921;-44
2021/08/01 06:25:38;;;;;;;;;;;23.80;48.70;;;;;;8332638;28;19925;-45
2021/08/01 06:29:39;;;;;;;;;;;23.80;48.70;;;;;;8332186;28;19923;-44
2021/08/01 06:33:39;;;;;;;;;;;23.80;48.70;;;;;;8333329;28;19917;-44
2021/08/01 06:37:40;;;;;;;;;;;23.70;48.70;;;;;;8332437;28;19917;-45
2021/08/01 06:41:40;;;;;;;;;;;23.80;48.70;;;;;;8331926;28;19997;-44
2021/08/01 06:45:42;;;;;;;;;;;23.70;48.70;;;;;;8332102;28;19932;-44
2021/08/01 06:49:42;;;;;;;;;;;23.70;48.70;;;;;;8332004;28;20016;-44
2021/08/01 06:53:42;;;;;;;;;;;23.70;48.70;;;;;;8332123;28;19981;-45
2021/08/01 06:57:43;;;;;;;;;;;23.70;48.70;;;;;;8331757;28;19917;-46
2021/08/01 07:01:43;;;;;;;;;;;23.70;48.80;;;;;;8331877;28;19940;-44
2021/08/01 07:05:44;;;;;;;;;;;23.70;48.70;;;;;;8331057;28;20389;-45
2021/08/01 07:09:44;;;;;;;;;;;23.70;48.80;;;;;;8332085;28;19917;-43
2021/08/01 07:13:46;;;;;;;;;;;23.70;48.80;;;;;;8331263;28;19939;-43
2021/08/01 07:17:47;;;;;;;;;;;23.70;48.80;;;;;;8330685;28;20263;-45
2021/08/01 07:21:48;;;;;;;;;;;23.70;48.80;;;;;;8331336;28;19957;-45
2021/08/01 07:25:48;;;;;;;;;;;23.70;48.80;;;;;;8331630;28;20415;-45
2021/08/01 07:29:49;;;;;;;;;;;23.70;48.80;;;;;;8330235;28;19924;-46
2021/08/01 07:33:49;;;;;;;;;;;23.70;48.90;;;;;;8331189;28;19963;-45
2021/08/01 07:37:50;;;;;;;;;;;23.70;48.90;;;;;;8330572;28;19917;-45
2021/08/01 07:41:50;;;;;;;;;;;23.70;48.90;;;;;;8330404;28;19913;-44
2021/08/01 07:45:51;;;;;;;;;;;23.70;48.90;;;;;;8331264;28;20370;-45
2021/08/01 07:49:51;;;;;;;;;;;23.70;48.90;;;;;;8329952;28;19924;-45
2021/08/01 07:53:52;;;;;;;;;;;23.70;49.00;;;;;;8330694;28;20395;-46
2021/08/01 07:57:55;;;;;;;;;;;23.70;49.00;;;;;;8330380;28;19917;-46
2021/08/01 08:01:55;;;;;;;;;;;23.70;49.00;;;;;;8330689;28;19913;-45
2021/08/01 08:05:57;;;;;;;;;;;23.70;49.00;;;;;;8330124;28;19952;-46
2021/08/01 08:09:57;;;;;;;;;;;23.70;49.00;;;;;;8330079;28;19970;-45
2021/08/01 08:13:58;;;;;;;;;;;23.70;49.00;;;;;;8329550;28;20275;-46
2021/08/01 08:17:58;;;;;;;;;;;23.70;49.10;;;;;;8330972;28;19913;-44
2021/08/01 08:21:59;;;;;;;;;;;23.70;49.10;;;;;;8330218;28;19913;-45
2021/08/01 08:26:01;;;;;;;;;;;23.70;49.10;;;;;;8329472;28;19932;-45
2021/08/01 08:30:02;;;;;;;;;;;23.70;49.10;;;;;;8329996;28;20374;-45
2021/08/01 08:34:03;;;;;;;;;;;23.70;49.10;;;;;;8329715;28;19917;-45
2021/08/01 08:38:03;;;;;;;;;;;23.70;49.10;;;;;;8330125;28;19917;-45
2021/08/01 08:42:04;;;;;;;;;;;23.70;49.10;;;;;;8331316;28;20383;-45
2021/08/01 08:46:04;;;;;;;;;;;23.70;49.10;;;;;;8336095;28;20298;-45
2021/08/01 08:50:06;;;;;;;;;;;23.70;49.10;;;;;;8335334;28;19944;-45
2021/08/01 08:54:09;;;;;;;;;;;23.70;49.20;;;;;;8336168;28;20385;-45
2021/08/01 08:58:10;;;;;;;;;;;23.70;49.20;;;;;;8335620;28;19917;-45
2021/08/01 09:02:12;;;;;;;;;;;23.70;49.20;;;;;;8335003;28;19917;-44
2021/08/01 09:06:12;;;;;;;;;;;23.70;49.20;;;;;;8335221;28;19971;-45
2021/08/01 09:10:12;;;;;;;;;;;23.70;49.20;;;;;;8335147;28;19917;-45
2021/08/01 09:14:20;;;;;;;;;;;23.70;49.20;;;;;;8335449;28;19917;-45
2021/08/01 09:18:31;;;;;;;;;;;23.60;49.20;;;;;;8335204;28;20374;-46
2021/08/01 09:22:32;;;;;;;;;;;23.70;49.30;;;;;;8334742;28;19924;-45
2021/08/01 09:26:42;;;;;;;;;;;23.70;49.30;;;;;;8334205;28;20374;-46
2021/08/01 09:30:48;;;;;;;;;;;23.70;49.30;;;;;;8335580;28;20302;-46
2021/08/01 09:34:49;;;;;;;;;;;23.70;49.30;;;;;;8334964;28;19940;-46
2021/08/01 09:38:54;;;;;;;;;;;23.60;49.30;;;;;;8333785;28;19917;-45
2021/08/01 09:43:04;;;;;;;;;;;23.70;49.30;;;;;;8334123;28;20004;-45
2021/08/01 09:47:05;;;;;;;;;;;23.70;49.30;;;;;;8333413;28;19936;-45
2021/08/01 09:51:06;;;;;;;;;;;23.70;49.30;;;;;;8334593;28;19917;-45
2021/08/01 09:55:15;;;;;;;;;;;23.70;49.30;;;;;;8333593;28;19924;-45
2021/08/01 09:59:19;;;;;;;;;;;23.70;49.30;;;;;;8333117;28;19917;-45
2021/08/01 10:03:33;;;;;;;;;;;23.70;49.30;;;;;;8333481;28;19919;-44
2021/08/01 10:07:41;;;;;;;;;;;23.70;49.80;;;;;;8333930;28;19933;-45
2021/08/01 10:11:51;;;;;;;;;;;23.70;49.30;;;;;;8333692;28;19914;-46
2021/08/01 10:15:51;;;;;;;;;;;23.70;49.30;;;;;;8333355;28;19999;-46
2021/08/01 10:19:52;;;;;;;;;;;23.70;49.30;;;;;;8332481;28;19921;-45
2021/08/01 10:23:53;;;;;;;;;;;23.70;49.30;;;;;;8332663;28;19924;-45
2021/08/01 10:27:55;;;;;;;;;;;23.70;49.30;;;;;;8333613;28;20016;-45
2021/08/01 10:31:58;;;;;;;;;;;23.70;49.30;;;;;;8332028;28;19929;-44
2021/08/01 10:36:00;;;;;;;;;;;23.70;49.30;;;;;;8332647;28;19917;-45
2021/08/01 10:40:09;;;;;;;;;;;23.70;49.30;;;;;;8332192;28;19925;-45
2021/08/01 10:44:11;;;;;;;;;;;23.70;49.30;;;;;;8331955;28;19917;-45
2021/08/01 10:48:12;;;;;;;;;;;23.80;49.30;;;;;;8332973;28;19925;-45
2021/08/01 10:52:14;;;;;;;;;;;23.70;49.30;;;;;;8332069;28;20368;-45
2021/08/01 10:56:23;;;;;;;;;;;23.70;49.30;;;;;;8331422;28;19960;-46
2021/08/01 11:00:24;;;;;;;;;;;23.80;49.30;;;;;;8331661;28;20301;-44
2021/08/01 11:04:32;;;;;;;;;;;23.80;49.30;;;;;;8331808;28;19935;-45
2021/08/01 11:08:35;;;;;;;;;;;23.80;49.30;;;;;;8333167;28;19925;-45
2021/08/01 11:12:42;;;;;;;;;;;23.80;49.30;;;;;;8331537;28;20011;-45
2021/08/01 11:16:42;;;;;;;;;;;23.80;49.30;;;;;;8331612;28;19952;-45
2021/08/01 11:20:43;;;;;;;;;;;23.80;49.30;;;;;;8330704;28;19917;-45
2021/08/01 11:25:03;;;;;;;;;;;23.80;49.30;;;;;;8331742;28;19959;-45
2021/08/01 11:29:10;;;;;;;;;;;23.80;49.30;;;;;;8330263;28;19929;-46
2021/08/01 11:33:27;;;;;;;;;;;23.80;49.30;;;;;;8331009;28;19921;-44
2021/08/01 11:37:27;;;;;;;;;;;23.80;49.30;;;;;;8330755;28;20294;-45
2021/08/01 11:45:48;;;;;;;;;;;23.80;49.30;;;;;;8331646;28;19917;-44
2021/08/01 11:49:49;;;;;;;;;;;23.80;49.30;;;;;;8330469;28;20030;-46
2021/08/01 11:53:49;;;;;;;;;;;23.80;49.30;;;;;;8329977;28;20286;-44
2021/08/01 11:57:50;;;;;;;;;;;23.80;49.30;;;;;;8330675;28;19920;-44
2021/08/01 12:01:52;;;;;;;;;;;23.80;49.30;;;;;;8329992;28;19971;-44
2021/08/01 12:05:53;;;;;;;;;;;23.80;49.20;;;;;;8330924;28;19921;-44
2021/08/01 12:09:53;;;;;;;;;;;23.80;49.30;;;;;;8330348;28;19917;-45
2021/08/01 12:14:07;;;;;;;;;;;23.80;49.20;;;;;;8329822;28;19918;-44
2021/08/01 12:18:23;;;;;;;;;;;23.80;49.20;;;;;;8333592;28;19917;-45
2021/08/01 12:22:24;;;;;;;;;;;23.80;49.20;;;;;;8337397;28;19960;-44
2021/08/01 12:26:38;;;;;;;;;;;23.80;49.20;;;;;;8336308;28;20394;-44
2021/08/01 12:30:44;;;;;;;;;;;23.90;49.20;;;;;;8335754;28;19917;-45
2021/08/01 12:34:45;;;;;;;;;;;23.90;49.20;;;;;;8320203;28;20012;-44
2021/08/01 12:38:45;;;;;;;;;;;23.90;49.20;;;;;;8302867;28;19925;-45
2021/08/01 12:42:50;;;;;;;;;;;23.90;49.10;;;;;;8304197;28;20386;-44
2021/08/01 12:47:04;;;;;;;;;;;23.90;49.20;;;;;;8302637;28;20008;-44
2021/08/01 12:51:04;;;;;;;;;;;23.90;49.10;;;;;;8303063;28;19928;-43
2021/08/01 12:55:05;;;;;;;;;;;23.90;49.10;;;;;;8302994;28;19921;-44
2021/08/01 12:59:10;;;;;;;;;;;23.90;49.10;;;;;;8302418;28;19913;-45
2021/08/01 13:03:11;;;;;;;;;;;23.90;49.10;;;;;;8303578;28;19944;-46
2021/08/01 13:07:12;;;;;;;;;;;23.90;49.10;;;;;;8303026;28;19926;-44
2021/08/01 13:11:13;;;;;;;;;;;23.90;49.10;;;;;;8302165;28;19918;-45
2021/08/01 13:15:23;;;;;;;;;;;23.90;49.10;;;;;;8302715;28;20370;-44
2021/08/01 13:19:25;;;;;;;;;;;23.90;49.10;;;;;;8303055;28;19960;-46
2021/08/01 13:23:28;;;;;;;;;;;23.90;49.10;;;;;;8301773;28;20298;-44
2021/08/01 13:27:29;;;;;;;;;;;23.80;49.10;;;;;;8301448;28;19972;-44
2021/08/01 13:31:33;;;;;;;;;;;23.80;49.10;;;;;;8301861;28;19941;-44
2021/08/01 13:35:34;;;;;;;;;;;23.80;49.10;;;;;;8301125;28;19926;-45
2021/08/01 13:39:37;;;;;;;;;;;23.90;49.20;;;;;;8302502;28;20381;-44
2021/08/01 13:43:37;;;;;;;;;;;23.80;49.10;;;;;;8301331;28;19918;-45
2021/08/01 13:47:38;;;;;;;;;;;23.80;49.20;;;;;;8300885;28;19980;-44
2021/08/01 13:51:39;;;;;;;;;;;23.80;49.20;;;;;;8301393;28;19921;-44
2021/08/01 13:55:39;;;;;;;;;;;23.80;49.20;;;;;;8301569;28;19913;-44
2021/08/01 13:59:39;;;;;;;;;;;23.80;49.20;;;;;;8300595;28;19918;-44
2021/08/01 14:03:40;;;;;;;;;;;23.80;49.20;;;;;;8300698;28;19921;-45
2021/08/01 14:07:40;;;;;;;;;;;23.80;49.20;;;;;;8301018;28;20035;-45
2021/08/01 14:11:41;;;;;;;;;;;23.80;49.30;;;;;;8300535;28;19920;-46
2021/08/01 14:15:41;;;;;;;;;;;23.80;49.30;;;;;;8301021;28;19920;-45
2021/08/01 14:19:42;;;;;;;;;;;23.70;49.30;;;;;;8300264;28;19917;-45
2021/08/01 14:23:42;;;;;;;;;;;23.70;49.30;;;;;;8299585;28;20016;-45
2021/08/01 14:27:43;;;;;;;;;;;23.70;49.30;;;;;;8299807;28;19926;-44
2021/08/01 14:31:44;;;;;;;;;;;23.70;49.30;;;;;;8300712;28;20016;-45
2021/08/01 14:35:45;;;;;;;;;;;23.70;49.30;;;;;;8299234;28;19921;-45
2021/08/01 14:39:45;;;;;;;;;;;23.80;49.30;;;;;;8298899;28;19917;-44
2021/08/01 14:43:46;;;;;;;;;;;23.70;49.30;;;;;;8299574;28;20395;-45
2021/08/01 14:47:47;;;;;;;;;;;23.70;49.30;;;;;;8299611;28;20377;-47
2021/08/01 14:56:04;;;;;;;;;;;23.80;49.30;;;;;;8300922;28;19918;-46
2021/08/01 15:00:05;;;;;;;;;;;23.70;49.30;;;;;;8299218;28;19971;-46
2021/08/01 15:04:28;;;;;;;;;;;23.80;49.40;;;;;;8299071;28;19922;-46
2021/08/01 15:08:47;;;;;;;;;;;23.70;49.30;;;;;;8299894;28;20012;-46
2021/08/01 15:12:51;;;;;;;;;;;23.70;49.30;;;;;;8299101;28;19925;-46
2021/08/01 15:17:24;;;;;;;;;;;23.70;49.30;;;;;;8298296;28;19917;-45
2021/08/01 15:21:25;;;;;;;;;;;23.70;49.30;;;;;;8290261;28;19924;-47
2021/08/01 15:25:26;;;;;;;;;;;23.80;49.30;;;;;;8298337;28;20007;-48
2021/08/01 15:29:26;;;;;;;;;;;23.70;49.30;;;;;;8298830;28;19926;-45
2021/08/01 15:33:28;;;;;;;;;;;23.70;49.30;;;;;;8298293;28;20397;-45
2021/08/01 15:37:29;;;;;;;;;;;23.70;49.30;;;;;;8298206;28;19918;-45
2021/08/01 15:41:33;;;;;;;;;;;23.80;49.30;;;;;;8297734;28;20008;-46
2021/08/01 15:45:34;;;;;;;;;;;23.80;49.30;;;;;;8297832;28;19968;-45
2021/08/01 15:49:34;;;;;;;;;;;23.70;49.30;;;;;;8298767;28;19921;-45
2021/08/01 15:53:47;;;;;;;;;;;23.70;49.30;;;;;;8297259;28;19929;-45
2021/08/01 15:57:51;;;;;;;;;;;23.70;49.30;;;;;;8297663;28;19917;-46
2021/08/01 16:02:07;;;;;;;;;;;23.70;49.30;;;;;;8297074;28;20283;-46
2021/08/01 16:06:08;;;;;;;;;;;23.70;49.40;;;;;;8301809;28;19931;-47
2021/08/01 16:10:13;;;;;;;;;;;23.70;49.40;;;;;;8298197;28;19918;-46
2021/08/01 16:14:16;;;;;;;;;;;23.70;49.50;;;;;;8297026;28;19917;-47
2021/08/01 16:18:17;;;;;;;;;;;23.70;49.50;;;;;;8297364;28;20294;-46
2021/08/01 16:22:19;;;;;;;;;;;23.70;49.50;;;;;;8297409;28;19918;-46
2021/08/01 16:26:19;;;;;;;;;;;23.70;49.50;;;;;;8297422;28;20012;-47
2021/08/01 16:30:20;;;;;;;;;;;23.70;49.50;;;;;;8297455;28;19921;-46
2021/08/01 16:34:21;;;;;;;;;;;23.70;49.50;;;;;;8297195;28;19917;-48
2021/08/01 16:38:21;;;;;;;;;;;23.70;49.50;;;;;;8296848;28;20355;-46
2021/08/01 16:42:26;;;;;;;;;;;23.70;49.50;;;;;;8298062;28;19921;-47
2021/08/01 16:46:28;;;;;;;;;;;23.70;49.50;;;;;;8297182;28;20011;-47
2021/08/01 16:50:49;;;;;;;;;;;23.70;49.50;;;;;;8296566;28;20024;-47
2021/08/01 16:55:00;;;;;;;;;;;23.70;49.50;;;;;;8296478;28;20420;-46
2021/08/01 16:59:02;;;;;;;;;;;23.70;49.50;;;;;;8298708;28;20433;-46
2021/08/01 17:03:04;;;;;;;;;;;23.70;49.40;;;;;;8298764;28;19944;-46
2021/08/01 17:07:06;;;;;;;;;;;23.70;49.50;;;;;;8302764;28;20014;-45
2021/08/01 17:11:14;;;;;;;;;;;23.70;49.50;;;;;;8302193;28;20008;-46
2021/08/01 17:15:14;;;;;;;;;;;23.60;49.40;;;;;;8302412;28;19918;-45
2021/08/01 17:19:15;;;;;;;;;;;23.60;49.40;;;;;;8302203;28;19983;-45
2021/08/01 17:23:15;;;;;;;;;;;23.70;49.50;;;;;;8302488;28;20136;-45
2021/08/01 17:27:17;;;;;;;;;;;23.60;49.40;;;;;;8301995;28;19957;-45
2021/08/01 17:31:22;;;;;;;;;;;23.60;49.40;;;;;;8301937;28;19981;-45
2021/08/01 17:35:27;;;;;;;;;;;23.60;49.40;;;;;;8301205;28;19925;-47
2021/08/01 17:39:31;;;;;;;;;;;23.60;49.40;;;;;;8302333;28;19929;-46
2021/08/01 17:43:33;;;;;;;;;;;23.60;49.50;;;;;;8301505;28;19918;-46
2021/08/01 17:47:33;;;;;;;;;;;23.60;49.50;;;;;;8300744;28;19925;-46
2021/08/01 17:51:34;;;;;;;;;;;23.60;49.50;;;;;;8301448;28;19928;-45
2021/08/01 17:55:36;;;;;;;;;;;23.60;49.50;;;;;;8301096;28;19925;-47
2021/08/01 17:59:37;;;;;;;;;;;23.60;49.50;;;;;;8301114;28;20056;-45
2021/08/01 18:03:38;;;;;;;;;;;23.50;49.50;;;;;;8300713;28;19918;-46
2021/08/01 18:07:43;;;;;;;;;;;23.60;49.50;;;;;;8301169;28;19979;-45
2021/08/01 18:11:46;;;;;;;;;;;23.60;49.50;;;;;;8300085;28;20010;-46
2021/08/01 18:15:53;;;;;;;;;;;23.50;49.50;;;;;;8300040;28;19924;-46
2021/08/01 18:19:55;;;;;;;;;;;23.50;49.50;;;;;;8300037;28;19918;-46
2021/08/01 18:23:56;;;;;;;;;;;23.60;49.50;;;;;;8300316;28;19921;-47
2021/08/01 18:27:56;;;;;;;;;;;23.60;49.50;;;;;;8300179;28;19932;-46
2021/08/01 18:31:58;;;;;;;;;;;23.60;49.50;;;;;;8299630;28;19925;-45
2021/08/01 18:35:59;;;;;;;;;;;23.50;49.50;;;;;;8300460;28;19918;-46
2021/08/01 18:44:45;;;;;;;;;;;23.50;49.50;;;;;;8327530;28;19983;-46
2021/08/01 18:48:46;;;;;;;;;;;23.50;49.50;;;;;;8320109;28;19929;-45
2021/08/01 18:52:51;;;;;;;;;;;23.50;49.50;;;;;;8316081;28;19917;-45
2021/08/01 18:56:53;;;;;;;;;;;23.50;49.50;;;;;;8299827;28;20294;-47
2021/08/01 19:00:53;;;;;;;;;;;23.50;49.50;;;;;;8299239;28;19956;-45
2021/08/01 19:04:55;;;;;;;;;;;23.50;49.50;;;;;;8298363;28;20378;-45
2021/08/01 19:08:56;;;;;;;;;;;23.50;49.50;;;;;;8298719;28;20090;-45
2021/08/01 19:12:57;;;;;;;;;;;23.50;49.50;;;;;;8299320;28;19917;-46
2021/08/01 19:17:08;;;;;;;;;;;23.50;49.50;;;;;;8298083;28;19918;-45
2021/08/01 19:21:11;;;;;;;;;;;23.50;49.50;;;;;;8298571;28;20020;-46
2021/08/01 19:25:13;;;;;;;;;;;23.50;49.50;;;;;;8298187;28;20345;-46
2021/08/01 19:29:15;;;;;;;;;;;23.40;49.50;;;;;;8297921;28;19936;-45
2021/08/01 19:33:17;;;;;;;;;;;23.40;49.50;;;;;;8299067;28;19922;-46
2021/08/01 19:37:18;;;;;;;;;;;23.40;49.50;;;;;;8298025;28;19918;-45
2021/08/01 19:41:21;;;;;;;;;;;23.40;49.50;;;;;;8297495;28;20012;-45
2021/08/01 19:45:21;;;;;;;;;;;23.40;49.50;;;;;;8298204;28;20312;-45
2021/08/01 19:49:23;;;;;;;;;;;23.40;49.50;;;;;;8298579;28;19922;-46
2021/08/01 19:53:23;;;;;;;;;;;23.40;49.50;;;;;;8297356;28;19960;-46
2021/08/01 19:57:24;;;;;;;;;;;23.40;49.50;;;;;;8297681;28;20375;-45
2021/08/01 20:01:25;;;;;;;;;;;23.40;49.50;;;;;;8297754;28;19918;-45
2021/08/01 20:05:25;;;;;;;;;;;23.40;49.50;;;;;;8296984;28;19979;-45
2021/08/01 20:09:26;;;;;;;;;;;23.30;49.50;;;;;;8297974;28;19930;-46
2021/08/01 20:13:26;;;;;;;;;;;23.30;49.40;;;;;;8297451;28;19992;-45
2021/08/01 20:17:26;;;;;;;;;;;23.30;49.50;;;;;;8296913;28;19921;-45
2021/08/01 20:21:27;;;;;;;;;;;23.30;49.50;;;;;;8297405;28;19921;-45
2021/08/01 20:25:28;;;;;;;;;;;23.30;49.50;;;;;;8297990;28;20405;-45
2021/08/01 20:29:28;;;;;;;;;;;23.30;49.50;;;;;;8296602;28;19926;-45
2021/08/01 20:33:29;;;;;;;;;;;23.30;49.50;;;;;;8297128;28;20396;-45
2021/08/01 20:37:29;;;;;;;;;;;23.30;49.50;;;;;;8297789;28;20312;-45
2021/08/01 20:41:30;;;;;;;;;;;23.30;49.50;;;;;;8303722;28;19964;-45
2021/08/01 20:45:30;;;;;;;;;;;23.30;49.50;;;;;;8303501;28;19925;-45
2021/08/01 20:49:31;;;;;;;;;;;23.30;49.50;;;;;;8303219;28;19933;-46
2021/08/01 20:53:31;;;;;;;;;;;23.30;49.50;;;;;;8302556;28;19917;-46
2021/08/01 20:57:32;;;;;;;;;;;23.30;49.50;;;;;;8302828;28;20326;-45
2021/08/01 21:01:32;;;;;;;;;;;23.20;49.40;;;;;;8303556;28;20286;-45
2021/08/01 21:05:36;;;;;;;;;;;23.30;49.50;;;;;;8302012;28;19917;-45
2021/08/01 21:09:36;;;;;;;;;;;23.20;49.40;;;;;;8302646;28;20015;-47
2021/08/01 21:13:37;;;;;;;;;;;23.20;49.50;;;;;;8302441;28;19972;-45
2021/08/01 21:17:37;;;;;;;;;;;23.20;49.40;;;;;;8302583;28;20055;-45
2021/08/01 21:21:38;;;;;;;;;;;23.20;49.40;;;;;;8302325;28;19987;-45
2021/08/01 21:25:38;;;;;;;;;;;23.20;49.50;;;;;;8302069;28;20390;-45
2021/08/01 21:29:38;;;;;;;;;;;23.20;49.50;;;;;;8301459;28;19925;-45
2021/08/01 21:33:39;;;;;;;;;;;23.20;49.50;;;;;;8302627;28;19914;-47
2021/08/01 21:37:39;;;;;;;;;;;23.20;49.50;;;;;;8301765;28;19964;-46
2021/08/01 21:41:40;;;;;;;;;;;23.10;49.40;;;;;;8301104;28;19922;-46
2021/08/01 21:45:41;;;;;;;;;;;23.20;49.50;;;;;;8301578;28;20016;-47
2021/08/01 21:49:41;;;;;;;;;;;23.10;49.40;;;;;;8300842;28;19925;-46
2021/08/01 21:53:42;;;;;;;;;;;23.10;49.40;;;;;;8301338;28;20022;-46
2021/08/01 21:57:42;;;;;;;;;;;23.10;49.40;;;;;;8301204;28;20317;-45
2021/08/01 22:01:50;;;;;;;;;;;23.10;49.40;;;;;;8300791;28;19925;-45
2021/08/01 22:05:58;;;;;;;;;;;23.10;49.40;;;;;;8308127;28;19921;-46
2021/08/01 22:10:00;;;;;;;;;;;23.10;49.40;;;;;;8334123;28;19924;-45
2021/08/01 22:14:00;;;;;;;;;;;23.10;49.40;;;;;;8332707;28;19952;-47
2021/08/01 22:18:01;;;;;;;;;;;23.10;49.40;;;;;;8333525;28;19917;-45
2021/08/01 22:22:03;;;;;;;;;;;23.10;49.40;;;;;;8333236;28;19924;-45
2021/08/01 22:26:04;;;;;;;;;;;23.00;49.40;;;;;;8332358;28;19978;-47
2021/08/01 22:30:05;;;;;;;;;;;23.10;49.40;;;;;;8333392;28;19917;-45
2021/08/01 22:34:06;;;;;;;;;;;23.00;49.40;;;;;;8332627;28;19917;-47
2021/08/01 22:38:07;;;;;;;;;;;23.00;49.40;;;;;;8332184;28;19927;-45
2021/08/01 22:42:07;;;;;;;;;;;23.00;49.40;;;;;;8332708;28;19963;-45
2021/08/01 22:46:08;;;;;;;;;;;23.00;49.40;;;;;;8333010;28;19917;-45
2021/08/01 22:50:11;;;;;;;;;;;23.00;49.30;;;;;;8331669;28;19917;-49
2021/08/01 22:54:13;;;;;;;;;;;23.00;49.30;;;;;;8332180;28;19940;-47
2021/08/01 22:58:15;;;;;;;;;;;23.00;49.30;;;;;;8332196;28;20378;-48
2021/08/01 23:02:20;;;;;;;;;;;23.00;49.30;;;;;;8330808;28;19920;-45
2021/08/01 23:06:32;;;;;;;;;;;22.90;49.30;;;;;;8332467;28;19925;-46
2021/08/01 23:10:36;;;;;;;;;;;23.00;49.30;;;;;;8331670;28;19917;-46
2021/08/01 23:14:38;;;;;;;;;;;22.90;49.30;;;;;;8331012;28;19918;-45
2021/08/01 23:18:42;;;;;;;;;;;22.90;49.30;;;;;;8331343;28;20274;-45
2021/08/01 23:22:49;;;;;;;;;;;22.90;49.30;;;;;;8332020;28;19914;-46
2021/08/01 23:26:50;;;;;;;;;;;22.90;49.30;;;;;;8330521;28;19991;-45
2021/08/01 23:30:51;;;;;;;;;;;22.90;49.30;;;;;;8331092;28;19971;-46
2021/08/01 23:34:52;;;;;;;;;;;22.90;49.30;;;;;;8330494;28;19921;-48
2021/08/01 23:38:52;;;;;;;;;;;22.90;49.30;;;;;;8331205;28;19921;-47
2021/08/01 23:42:54;;;;;;;;;;;22.80;49.20;;;;;;8331706;28;19971;-48